sensor_id;sensor_type;location;lat;lon;timestamp;P1;durP1;ratioP1;P2;durP2;ratioP2
40252;SDS011;25972;51.854;4.534;2023-06-26T00:02:17;6.45;;;2.80;;
40252;SDS011;25972;51.854;4.534;2023-06-26T00:04:44;6.25;;;3.00;;
40252;SDS011;25972;51.854;4.534;2023-06-26T00:07:11;4.93;;;2.33;;
40252;SDS011;25972;51.854;4.534;2023-06-26T00:09:37;7.22;;;2.95;;
40252;SDS011;25972;51.854;4.534;2023-06-26T00:12:04;4.93;;;2.20;;
40252;SDS011;25972;51.854;4.534;2023-06-26T00:14:33;8.63;;;2.70;;
40252;SDS011;25972;51.854;4.534;2023-06-26T00:16:59;8.05;;;2.92;;
40252;SDS011;25972;51.854;4.534;2023-06-26T00:19:25;4.47;;;1.83;;
40252;SDS011;25972;51.854;4.534;2023-06-26T00:21:51;5.78;;;2.28;;
40252;SDS011;25972;51.854;4.534;2023-06-26T00:24:19;6.53;;;2.60;;
40252;SDS011;25972;51.854;4.534;2023-06-26T00:26:46;5.50;;;2.30;;
40252;SDS011;25972;51.854;4.534;2023-06-26T00:29:12;5.78;;;2.17;;
40252;SDS011;25972;51.854;4.534;2023-06-26T00:31:38;5.13;;;2.45;;
40252;SDS011;25972;51.854;4.534;2023-06-26T00:34:05;8.35;;;2.30;;
40252;SDS011;25972;51.854;4.534;2023-06-26T00:36:35;5.78;;;2.08;;
40252;SDS011;25972;51.854;4.534;2023-06-26T00:39:02;7.68;;;2.30;;
40252;SDS011;25972;51.854;4.534;2023-06-26T00:41:30;7.93;;;2.65;;
40252;SDS011;25972;51.854;4.534;2023-06-26T00:43:56;7.28;;;2.22;;
40252;SDS011;25972;51.854;4.534;2023-06-26T00:46:22;9.35;;;3.00;;
40252;SDS011;25972;51.854;4.534;2023-06-26T00:48:51;5.78;;;2.15;;
40252;SDS011;25972;51.854;4.534;2023-06-26T00:51:19;9.48;;;2.60;;
40252;SDS011;25972;51.854;4.534;2023-06-26T00:53:45;8.98;;;2.55;;
40252;SDS011;25972;51.854;4.534;2023-06-26T00:56:12;5.20;;;1.60;;
40252;SDS011;25972;51.854;4.534;2023-06-26T00:58:41;4.75;;;2.35;;
40252;SDS011;25972;51.854;4.534;2023-06-26T01:01:07;8.40;;;2.45;;
40252;SDS011;25972;51.854;4.534;2023-06-26T01:03:34;6.35;;;2.45;;
40252;SDS011;25972;51.854;4.534;2023-06-26T01:06:02;7.57;;;2.25;;
40252;SDS011;25972;51.854;4.534;2023-06-26T01:08:31;8.45;;;2.55;;
40252;SDS011;25972;51.854;4.534;2023-06-26T01:10:57;10.52;;;3.13;;
40252;SDS011;25972;51.854;4.534;2023-06-26T01:13:25;11.85;;;3.03;;
40252;SDS011;25972;51.854;4.534;2023-06-26T01:15:54;8.23;;;3.30;;
40252;SDS011;25972;51.854;4.534;2023-06-26T01:18:22;7.60;;;2.60;;
40252;SDS011;25972;51.854;4.534;2023-06-26T01:20:49;9.85;;;2.78;;
40252;SDS011;25972;51.854;4.534;2023-06-26T01:23:20;11.75;;;3.20;;
40252;SDS011;25972;51.854;4.534;2023-06-26T01:25:54;9.77;;;2.78;;
40252;SDS011;25972;51.854;4.534;2023-06-26T01:28:28;11.80;;;3.78;;
40252;SDS011;25972;51.854;4.534;2023-06-26T01:30:56;5.75;;;2.50;;
40252;SDS011;25972;51.854;4.534;2023-06-26T01:33:23;11.80;;;3.08;;
40252;SDS011;25972;51.854;4.534;2023-06-26T01:35:51;10.57;;;3.10;;
40252;SDS011;25972;51.854;4.534;2023-06-26T01:38:17;11.98;;;2.90;;
40252;SDS011;25972;51.854;4.534;2023-06-26T01:40:44;11.70;;;3.28;;
40252;SDS011;25972;51.854;4.534;2023-06-26T01:43:13;8.98;;;2.67;;
40252;SDS011;25972;51.854;4.534;2023-06-26T01:45:45;9.30;;;3.00;;
40252;SDS011;25972;51.854;4.534;2023-06-26T01:48:13;8.70;;;3.38;;
40252;SDS011;25972;51.854;4.534;2023-06-26T01:50:41;11.60;;;3.22;;
40252;SDS011;25972;51.854;4.534;2023-06-26T01:53:11;12.38;;;2.95;;
40252;SDS011;25972;51.854;4.534;2023-06-26T01:55:43;11.70;;;3.28;;
40252;SDS011;25972;51.854;4.534;2023-06-26T01:58:15;13.27;;;3.55;;
40252;SDS011;25972;51.854;4.534;2023-06-26T02:00:42;11.27;;;3.42;;
40252;SDS011;25972;51.854;4.534;2023-06-26T02:03:10;14.85;;;3.50;;
40252;SDS011;25972;51.854;4.534;2023-06-26T02:05:38;11.45;;;3.63;;
40252;SDS011;25972;51.854;4.534;2023-06-26T02:08:04;11.18;;;3.17;;
40252;SDS011;25972;51.854;4.534;2023-06-26T02:10:30;15.75;;;3.60;;
40252;SDS011;25972;51.854;4.534;2023-06-26T02:12:57;13.07;;;3.58;;
40252;SDS011;25972;51.854;4.534;2023-06-26T02:15:23;9.63;;;2.88;;
40252;SDS011;25972;51.854;4.534;2023-06-26T02:17:49;9.18;;;3.20;;
40252;SDS011;25972;51.854;4.534;2023-06-26T02:20:16;14.55;;;3.33;;
40252;SDS011;25972;51.854;4.534;2023-06-26T02:22:42;10.10;;;3.22;;
40252;SDS011;25972;51.854;4.534;2023-06-26T02:25:08;8.00;;;2.67;;
40252;SDS011;25972;51.854;4.534;2023-06-26T02:27:35;8.95;;;3.22;;
40252;SDS011;25972;51.854;4.534;2023-06-26T02:30:01;14.20;;;2.92;;
40252;SDS011;25972;51.854;4.534;2023-06-26T02:32:27;14.65;;;3.60;;
40252;SDS011;25972;51.854;4.534;2023-06-26T02:34:54;13.43;;;3.30;;
40252;SDS011;25972;51.854;4.534;2023-06-26T02:37:21;10.48;;;3.22;;
40252;SDS011;25972;51.854;4.534;2023-06-26T02:39:47;8.30;;;2.50;;
40252;SDS011;25972;51.854;4.534;2023-06-26T02:42:13;6.70;;;2.78;;
40252;SDS011;25972;51.854;4.534;2023-06-26T02:44:41;8.30;;;3.17;;
40252;SDS011;25972;51.854;4.534;2023-06-26T02:47:07;7.82;;;2.60;;
40252;SDS011;25972;51.854;4.534;2023-06-26T02:49:39;9.57;;;2.55;;
40252;SDS011;25972;51.854;4.534;2023-06-26T02:52:06;10.00;;;3.13;;
40252;SDS011;25972;51.854;4.534;2023-06-26T02:54:34;8.52;;;2.70;;
40252;SDS011;25972;51.854;4.534;2023-06-26T02:57:03;6.72;;;2.60;;
40252;SDS011;25972;51.854;4.534;2023-06-26T02:59:32;6.45;;;2.35;;
40252;SDS011;25972;51.854;4.534;2023-06-26T03:01:58;5.75;;;2.42;;
40252;SDS011;25972;51.854;4.534;2023-06-26T03:04:43;9.65;;;2.60;;
40252;SDS011;25972;51.854;4.534;2023-06-26T03:07:12;9.38;;;2.50;;
40252;SDS011;25972;51.854;4.534;2023-06-26T03:09:41;8.13;;;2.45;;
40252;SDS011;25972;51.854;4.534;2023-06-26T03:12:09;12.93;;;2.33;;
40252;SDS011;25972;51.854;4.534;2023-06-26T03:14:35;12.93;;;2.70;;
40252;SDS011;25972;51.854;4.534;2023-06-26T03:17:02;9.70;;;2.90;;
40252;SDS011;25972;51.854;4.534;2023-06-26T03:19:30;5.90;;;2.05;;
40252;SDS011;25972;51.854;4.534;2023-06-26T03:22:15;11.35;;;2.50;;
40252;SDS011;25972;51.854;4.534;2023-06-26T03:24:43;6.68;;;2.60;;
40252;SDS011;25972;51.854;4.534;2023-06-26T03:27:10;8.77;;;2.95;;
40252;SDS011;25972;51.854;4.534;2023-06-26T03:29:37;9.43;;;2.75;;
40252;SDS011;25972;51.854;4.534;2023-06-26T03:32:04;8.13;;;2.50;;
40252;SDS011;25972;51.854;4.534;2023-06-26T03:34:33;9.02;;;2.45;;
40252;SDS011;25972;51.854;4.534;2023-06-26T03:36:59;8.02;;;2.60;;
40252;SDS011;25972;51.854;4.534;2023-06-26T03:39:27;11.10;;;2.63;;
40252;SDS011;25972;51.854;4.534;2023-06-26T03:41:54;7.63;;;2.38;;
40252;SDS011;25972;51.854;4.534;2023-06-26T03:44:22;10.35;;;2.50;;
40252;SDS011;25972;51.854;4.534;2023-06-26T03:46:49;9.02;;;2.90;;
40252;SDS011;25972;51.854;4.534;2023-06-26T03:49:16;9.43;;;2.47;;
40252;SDS011;25972;51.854;4.534;2023-06-26T03:51:43;7.30;;;2.70;;
40252;SDS011;25972;51.854;4.534;2023-06-26T03:54:09;10.68;;;2.67;;
40252;SDS011;25972;51.854;4.534;2023-06-26T03:56:35;10.27;;;2.47;;
40252;SDS011;25972;51.854;4.534;2023-06-26T03:59:05;7.70;;;2.67;;
40252;SDS011;25972;51.854;4.534;2023-06-26T04:01:31;8.32;;;2.42;;
40252;SDS011;25972;51.854;4.534;2023-06-26T04:03:57;9.32;;;2.60;;
40252;SDS011;25972;51.854;4.534;2023-06-26T04:06:25;8.95;;;2.53;;
40252;SDS011;25972;51.854;4.534;2023-06-26T04:08:51;7.13;;;2.40;;
40252;SDS011;25972;51.854;4.534;2023-06-26T04:11:17;9.05;;;2.45;;
40252;SDS011;25972;51.854;4.534;2023-06-26T04:13:46;7.88;;;2.15;;
40252;SDS011;25972;51.854;4.534;2023-06-26T04:16:14;8.35;;;2.42;;
40252;SDS011;25972;51.854;4.534;2023-06-26T04:18:41;5.45;;;2.22;;
40252;SDS011;25972;51.854;4.534;2023-06-26T04:21:07;8.02;;;2.47;;
40252;SDS011;25972;51.854;4.534;2023-06-26T04:23:35;7.80;;;2.38;;
40252;SDS011;25972;51.854;4.534;2023-06-26T04:26:05;10.95;;;2.70;;
40252;SDS011;25972;51.854;4.534;2023-06-26T04:28:31;10.30;;;2.35;;
40252;SDS011;25972;51.854;4.534;2023-06-26T04:30:58;10.63;;;2.78;;
40252;SDS011;25972;51.854;4.534;2023-06-26T04:33:25;6.13;;;2.20;;
40252;SDS011;25972;51.854;4.534;2023-06-26T04:35:51;10.50;;;2.75;;
40252;SDS011;25972;51.854;4.534;2023-06-26T04:38:18;6.55;;;2.58;;
40252;SDS011;25972;51.854;4.534;2023-06-26T04:40:45;12.85;;;2.30;;
40252;SDS011;25972;51.854;4.534;2023-06-26T04:43:11;7.03;;;2.28;;
40252;SDS011;25972;51.854;4.534;2023-06-26T04:45:37;7.75;;;2.00;;
40252;SDS011;25972;51.854;4.534;2023-06-26T04:48:04;3.85;;;1.25;;
40252;SDS011;25972;51.854;4.534;2023-06-26T04:50:32;8.48;;;2.33;;
40252;SDS011;25972;51.854;4.534;2023-06-26T04:52:58;5.85;;;1.88;;
40252;SDS011;25972;51.854;4.534;2023-06-26T04:55:25;3.83;;;1.90;;
40252;SDS011;25972;51.854;4.534;2023-06-26T04:57:51;7.25;;;1.92;;
40252;SDS011;25972;51.854;4.534;2023-06-26T05:00:17;4.25;;;1.70;;
40252;SDS011;25972;51.854;4.534;2023-06-26T05:02:44;3.75;;;1.77;;
40252;SDS011;25972;51.854;4.534;2023-06-26T05:05:10;4.20;;;1.98;;
40252;SDS011;25972;51.854;4.534;2023-06-26T05:07:38;6.05;;;1.90;;
40252;SDS011;25972;51.854;4.534;2023-06-26T05:10:04;16.67;;;2.20;;
40252;SDS011;25972;51.854;4.534;2023-06-26T05:12:33;6.65;;;1.92;;
40252;SDS011;25972;51.854;4.534;2023-06-26T05:15:00;6.32;;;1.90;;
40252;SDS011;25972;51.854;4.534;2023-06-26T05:17:26;6.03;;;1.80;;
40252;SDS011;25972;51.854;4.534;2023-06-26T05:19:52;3.88;;;1.50;;
40252;SDS011;25972;51.854;4.534;2023-06-26T05:22:18;3.78;;;1.63;;
40252;SDS011;25972;51.854;4.534;2023-06-26T05:24:47;4.72;;;1.58;;
40252;SDS011;25972;51.854;4.534;2023-06-26T05:27:13;5.90;;;1.60;;
40252;SDS011;25972;51.854;4.534;2023-06-26T05:29:46;3.40;;;1.70;;
40252;SDS011;25972;51.854;4.534;2023-06-26T05:32:13;6.10;;;2.00;;
40252;SDS011;25972;51.854;4.534;2023-06-26T05:34:42;2.60;;;1.58;;
40252;SDS011;25972;51.854;4.534;2023-06-26T05:37:11;3.55;;;1.35;;
40252;SDS011;25972;51.854;4.534;2023-06-26T05:39:40;1.67;;;1.20;;
40252;SDS011;25972;51.854;4.534;2023-06-26T05:42:11;3.60;;;1.10;;
40252;SDS011;25972;51.854;4.534;2023-06-26T05:44:46;5.18;;;1.55;;
40252;SDS011;25972;51.854;4.534;2023-06-26T05:47:12;2.15;;;1.30;;
40252;SDS011;25972;51.854;4.534;2023-06-26T05:49:39;1.80;;;1.15;;
40252;SDS011;25972;51.854;4.534;2023-06-26T05:52:09;7.05;;;1.73;;
40252;SDS011;25972;51.854;4.534;2023-06-26T05:54:39;4.32;;;1.55;;
40252;SDS011;25972;51.854;4.534;2023-06-26T05:57:09;4.28;;;1.23;;
40252;SDS011;25972;51.854;4.534;2023-06-26T05:59:38;2.92;;;1.20;;
40252;SDS011;25972;51.854;4.534;2023-06-26T06:02:06;2.40;;;1.10;;
40252;SDS011;25972;51.854;4.534;2023-06-26T06:04:33;3.10;;;0.82;;
40252;SDS011;25972;51.854;4.534;2023-06-26T06:07:00;2.58;;;1.27;;
40252;SDS011;25972;51.854;4.534;2023-06-26T06:09:26;3.40;;;1.10;;
40252;SDS011;25972;51.854;4.534;2023-06-26T06:11:52;2.92;;;1.15;;
40252;SDS011;25972;51.854;4.534;2023-06-26T06:14:20;6.15;;;1.55;;
40252;SDS011;25972;51.854;4.534;2023-06-26T06:16:46;6.90;;;1.60;;
40252;SDS011;25972;51.854;4.534;2023-06-26T06:19:12;3.40;;;1.20;;
40252;SDS011;25972;51.854;4.534;2023-06-26T06:21:39;4.78;;;1.58;;
40252;SDS011;25972;51.854;4.534;2023-06-26T06:24:05;4.50;;;1.27;;
40252;SDS011;25972;51.854;4.534;2023-06-26T06:26:34;3.53;;;1.13;;
40252;SDS011;25972;51.854;4.534;2023-06-26T06:29:01;2.15;;;1.15;;
40252;SDS011;25972;51.854;4.534;2023-06-26T06:31:28;2.97;;;1.20;;
40252;SDS011;25972;51.854;4.534;2023-06-26T06:33:54;3.55;;;1.02;;
40252;SDS011;25972;51.854;4.534;2023-06-26T06:36:20;6.50;;;1.42;;
40252;SDS011;25972;51.854;4.534;2023-06-26T06:38:47;2.75;;;1.20;;
40252;SDS011;25972;51.854;4.534;2023-06-26T06:41:13;1.48;;;1.00;;
40252;SDS011;25972;51.854;4.534;2023-06-26T06:43:39;3.90;;;1.20;;
40252;SDS011;25972;51.854;4.534;2023-06-26T06:46:05;3.38;;;1.10;;
40252;SDS011;25972;51.854;4.534;2023-06-26T06:48:37;5.60;;;1.23;;
40252;SDS011;25972;51.854;4.534;2023-06-26T06:51:03;3.78;;;1.38;;
40252;SDS011;25972;51.854;4.534;2023-06-26T06:53:29;3.38;;;1.20;;
40252;SDS011;25972;51.854;4.534;2023-06-26T06:55:56;2.63;;;1.08;;
40252;SDS011;25972;51.854;4.534;2023-06-26T06:58:22;5.85;;;1.40;;
40252;SDS011;25972;51.854;4.534;2023-06-26T07:00:48;2.28;;;1.10;;
40252;SDS011;25972;51.854;4.534;2023-06-26T07:03:17;2.28;;;0.90;;
40252;SDS011;25972;51.854;4.534;2023-06-26T07:05:45;4.28;;;0.90;;
40252;SDS011;25972;51.854;4.534;2023-06-26T07:08:11;2.97;;;1.23;;
40252;SDS011;25972;51.854;4.534;2023-06-26T07:10:37;3.60;;;1.20;;
40252;SDS011;25972;51.854;4.534;2023-06-26T07:13:05;5.22;;;1.60;;
40252;SDS011;25972;51.854;4.534;2023-06-26T07:15:31;4.15;;;1.20;;
40252;SDS011;25972;51.854;4.534;2023-06-26T07:17:57;2.38;;;1.10;;
40252;SDS011;25972;51.854;4.534;2023-06-26T07:20:23;1.88;;;0.85;;
40252;SDS011;25972;51.854;4.534;2023-06-26T07:22:52;3.72;;;1.20;;
40252;SDS011;25972;51.854;4.534;2023-06-26T07:25:18;7.25;;;1.42;;
40252;SDS011;25972;51.854;4.534;2023-06-26T07:27:44;3.05;;;1.10;;
40252;SDS011;25972;51.854;4.534;2023-06-26T07:30:10;4.75;;;1.30;;
40252;SDS011;25972;51.854;4.534;2023-06-26T07:32:37;7.47;;;1.38;;
40252;SDS011;25972;51.854;4.534;2023-06-26T07:35:03;5.68;;;1.00;;
40252;SDS011;25972;51.854;4.534;2023-06-26T07:37:30;6.78;;;1.40;;
40252;SDS011;25972;51.854;4.534;2023-06-26T07:39:57;5.30;;;1.30;;
40252;SDS011;25972;51.854;4.534;2023-06-26T07:42:24;9.00;;;1.67;;
40252;SDS011;25972;51.854;4.534;2023-06-26T07:44:50;3.30;;;1.05;;
40252;SDS011;25972;51.854;4.534;2023-06-26T07:47:16;3.47;;;1.20;;
40252;SDS011;25972;51.854;4.534;2023-06-26T07:49:43;8.13;;;1.40;;
40252;SDS011;25972;51.854;4.534;2023-06-26T07:52:09;3.83;;;1.33;;
40252;SDS011;25972;51.854;4.534;2023-06-26T07:54:36;4.25;;;1.23;;
40252;SDS011;25972;51.854;4.534;2023-06-26T07:57:04;4.78;;;1.30;;
40252;SDS011;25972;51.854;4.534;2023-06-26T07:59:34;2.58;;;1.08;;
40252;SDS011;25972;51.854;4.534;2023-06-26T08:02:00;3.78;;;1.05;;
40252;SDS011;25972;51.854;4.534;2023-06-26T08:04:27;1.70;;;0.95;;
40252;SDS011;25972;51.854;4.534;2023-06-26T08:06:55;3.38;;;1.17;;
40252;SDS011;25972;51.854;4.534;2023-06-26T08:09:22;9.00;;;1.77;;
40252;SDS011;25972;51.854;4.534;2023-06-26T08:11:50;3.15;;;1.17;;
40252;SDS011;25972;51.854;4.534;2023-06-26T08:14:18;4.00;;;1.25;;
40252;SDS011;25972;51.854;4.534;2023-06-26T08:16:44;4.60;;;1.23;;
40252;SDS011;25972;51.854;4.534;2023-06-26T08:19:11;5.13;;;1.70;;
40252;SDS011;25972;51.854;4.534;2023-06-26T08:21:39;2.55;;;1.10;;
40252;SDS011;25972;51.854;4.534;2023-06-26T08:24:06;2.67;;;1.00;;
40252;SDS011;25972;51.854;4.534;2023-06-26T08:26:33;3.78;;;1.40;;
40252;SDS011;25972;51.854;4.534;2023-06-26T08:29:00;2.65;;;1.30;;
40252;SDS011;25972;51.854;4.534;2023-06-26T08:31:34;4.22;;;1.15;;
40252;SDS011;25972;51.854;4.534;2023-06-26T08:34:00;2.65;;;1.20;;
40252;SDS011;25972;51.854;4.534;2023-06-26T08:36:26;3.22;;;1.23;;
40252;SDS011;25972;51.854;4.534;2023-06-26T08:38:52;2.35;;;1.00;;
40252;SDS011;25972;51.854;4.534;2023-06-26T08:41:18;6.35;;;1.40;;
40252;SDS011;25972;51.854;4.534;2023-06-26T08:43:44;6.88;;;1.40;;
40252;SDS011;25972;51.854;4.534;2023-06-26T08:46:11;4.43;;;1.30;;
40252;SDS011;25972;51.854;4.534;2023-06-26T08:48:38;2.50;;;0.80;;
40252;SDS011;25972;51.854;4.534;2023-06-26T08:51:09;3.15;;;1.10;;
40252;SDS011;25972;51.854;4.534;2023-06-26T08:53:39;4.35;;;1.02;;
40252;SDS011;25972;51.854;4.534;2023-06-26T08:56:11;2.13;;;0.98;;
40252;SDS011;25972;51.854;4.534;2023-06-26T08:58:40;2.50;;;1.10;;
40252;SDS011;25972;51.854;4.534;2023-06-26T09:01:06;5.10;;;0.93;;
40252;SDS011;25972;51.854;4.534;2023-06-26T09:03:33;3.17;;;1.00;;
40252;SDS011;25972;51.854;4.534;2023-06-26T09:06:00;4.80;;;1.20;;
40252;SDS011;25972;51.854;4.534;2023-06-26T09:08:28;1.02;;;0.90;;
40252;SDS011;25972;51.854;4.534;2023-06-26T09:10:55;3.33;;;0.90;;
40252;SDS011;25972;51.854;4.534;2023-06-26T09:13:21;3.30;;;1.17;;
40252;SDS011;25972;51.854;4.534;2023-06-26T09:15:47;4.05;;;0.88;;
40252;SDS011;25972;51.854;4.534;2023-06-26T09:18:13;7.38;;;1.30;;
40252;SDS011;25972;51.854;4.534;2023-06-26T09:20:43;4.43;;;1.15;;
40252;SDS011;25972;51.854;4.534;2023-06-26T09:23:10;1.63;;;0.93;;
40252;SDS011;25972;51.854;4.534;2023-06-26T09:25:38;3.65;;;1.25;;
40252;SDS011;25972;51.854;4.534;2023-06-26T09:28:05;4.90;;;1.25;;
40252;SDS011;25972;51.854;4.534;2023-06-26T09:30:31;3.80;;;1.42;;
40252;SDS011;25972;51.854;4.534;2023-06-26T09:32:58;3.47;;;1.08;;
40252;SDS011;25972;51.854;4.534;2023-06-26T09:35:39;1.98;;;1.10;;
40252;SDS011;25972;51.854;4.534;2023-06-26T09:38:07;2.97;;;1.17;;
40252;SDS011;25972;51.854;4.534;2023-06-26T09:40:34;4.88;;;1.40;;
40252;SDS011;25972;51.854;4.534;2023-06-26T09:43:03;2.90;;;0.82;;
40252;SDS011;25972;51.854;4.534;2023-06-26T09:45:30;4.88;;;1.27;;
40252;SDS011;25972;51.854;4.534;2023-06-26T09:47:58;4.82;;;1.33;;
40252;SDS011;25972;51.854;4.534;2023-06-26T09:50:26;3.00;;;1.17;;
40252;SDS011;25972;51.854;4.534;2023-06-26T09:52:52;3.58;;;1.35;;
40252;SDS011;25972;51.854;4.534;2023-06-26T09:55:19;5.13;;;1.17;;
40252;SDS011;25972;51.854;4.534;2023-06-26T09:57:48;5.57;;;1.30;;
40252;SDS011;25972;51.854;4.534;2023-06-26T10:00:15;6.85;;;0.88;;
40252;SDS011;25972;51.854;4.534;2023-06-26T10:02:42;7.38;;;1.30;;
40252;SDS011;25972;51.854;4.534;2023-06-26T10:05:08;3.92;;;1.20;;
40252;SDS011;25972;51.854;4.534;2023-06-26T10:07:34;6.32;;;1.30;;
40252;SDS011;25972;51.854;4.534;2023-06-26T10:10:02;4.93;;;1.25;;
40252;SDS011;25972;51.854;4.534;2023-06-26T10:12:31;3.50;;;1.30;;
40252;SDS011;25972;51.854;4.534;2023-06-26T10:15:00;6.97;;;1.17;;
40252;SDS011;25972;51.854;4.534;2023-06-26T10:17:30;1.95;;;1.05;;
40252;SDS011;25972;51.854;4.534;2023-06-26T10:20:01;3.72;;;1.10;;
40252;SDS011;25972;51.854;4.534;2023-06-26T10:22:29;4.63;;;1.45;;
40252;SDS011;25972;51.854;4.534;2023-06-26T10:24:59;6.90;;;1.30;;
40252;SDS011;25972;51.854;4.534;2023-06-26T10:27:30;2.08;;;0.93;;
40252;SDS011;25972;51.854;4.534;2023-06-26T10:30:06;3.40;;;1.40;;
40252;SDS011;25972;51.854;4.534;2023-06-26T10:32:37;3.85;;;1.23;;
40252;SDS011;25972;51.854;4.534;2023-06-26T10:35:06;2.03;;;1.00;;
40252;SDS011;25972;51.854;4.534;2023-06-26T10:37:42;2.67;;;1.23;;
40252;SDS011;25972;51.854;4.534;2023-06-26T10:40:09;0.90;;;0.80;;
40252;SDS011;25972;51.854;4.534;2023-06-26T10:42:36;5.05;;;1.40;;
40252;SDS011;25972;51.854;4.534;2023-06-26T10:45:13;4.05;;;1.10;;
40252;SDS011;25972;51.854;4.534;2023-06-26T10:47:41;3.42;;;1.40;;
40252;SDS011;25972;51.854;4.534;2023-06-26T10:53:13;2.42;;;0.90;;
40252;SDS011;25972;51.854;4.534;2023-06-26T10:55:49;2.03;;;1.08;;
40252;SDS011;25972;51.854;4.534;2023-06-26T10:58:32;2.13;;;0.98;;
40252;SDS011;25972;51.854;4.534;2023-06-26T11:01:20;1.55;;;0.75;;
40252;SDS011;25972;51.854;4.534;2023-06-26T11:03:48;2.92;;;1.02;;
40252;SDS011;25972;51.854;4.534;2023-06-26T11:06:27;3.17;;;1.13;;
40252;SDS011;25972;51.854;4.534;2023-06-26T11:08:53;3.17;;;1.00;;
40252;SDS011;25972;51.854;4.534;2023-06-26T11:14:24;2.30;;;0.90;;
40252;SDS011;25972;51.854;4.534;2023-06-26T11:16:53;3.03;;;0.95;;
40252;SDS011;25972;51.854;4.534;2023-06-26T11:19:21;2.03;;;1.00;;
40252;SDS011;25972;51.854;4.534;2023-06-26T11:21:48;1.77;;;0.70;;
40252;SDS011;25972;51.854;4.534;2023-06-26T11:24:15;3.67;;;0.90;;
40252;SDS011;25972;51.854;4.534;2023-06-26T11:26:42;2.80;;;0.63;;
40252;SDS011;25972;51.854;4.534;2023-06-26T11:29:09;3.15;;;1.00;;
40252;SDS011;25972;51.854;4.534;2023-06-26T11:31:37;2.67;;;0.88;;
40252;SDS011;25972;51.854;4.534;2023-06-26T11:34:06;2.17;;;0.73;;
40252;SDS011;25972;51.854;4.534;2023-06-26T11:36:34;4.20;;;1.20;;
40252;SDS011;25972;51.854;4.534;2023-06-26T11:39:03;2.55;;;0.93;;
40252;SDS011;25972;51.854;4.534;2023-06-26T11:41:33;2.67;;;1.10;;
40252;SDS011;25972;51.854;4.534;2023-06-26T11:44:01;3.40;;;1.35;;
40252;SDS011;25972;51.854;4.534;2023-06-26T11:46:28;2.45;;;1.02;;
40252;SDS011;25972;51.854;4.534;2023-06-26T11:48:56;4.07;;;0.88;;
40252;SDS011;25972;51.854;4.534;2023-06-26T11:51:24;1.95;;;1.00;;
40252;SDS011;25972;51.854;4.534;2023-06-26T11:53:53;5.72;;;1.05;;
40252;SDS011;25972;51.854;4.534;2023-06-26T11:56:19;5.32;;;1.02;;
40252;SDS011;25972;51.854;4.534;2023-06-26T11:58:57;3.78;;;0.98;;
40252;SDS011;25972;51.854;4.534;2023-06-26T12:01:26;2.50;;;0.88;;
40252;SDS011;25972;51.854;4.534;2023-06-26T12:03:54;1.63;;;0.80;;
40252;SDS011;25972;51.854;4.534;2023-06-26T12:06:25;1.55;;;0.70;;
40252;SDS011;25972;51.854;4.534;2023-06-26T12:08:51;1.77;;;0.75;;
40252;SDS011;25972;51.854;4.534;2023-06-26T12:11:18;3.85;;;1.25;;
40252;SDS011;25972;51.854;4.534;2023-06-26T12:13:47;2.63;;;0.85;;
40252;SDS011;25972;51.854;4.534;2023-06-26T12:16:14;3.70;;;0.90;;
40252;SDS011;25972;51.854;4.534;2023-06-26T12:18:40;3.28;;;1.00;;
40252;SDS011;25972;51.854;4.534;2023-06-26T12:21:06;0.65;;;0.57;;
40252;SDS011;25972;51.854;4.534;2023-06-26T12:23:35;2.15;;;1.13;;
40252;SDS011;25972;51.854;4.534;2023-06-26T12:28:53;3.75;;;0.88;;
40252;SDS011;25972;51.854;4.534;2023-06-26T12:31:20;2.53;;;1.02;;
40252;SDS011;25972;51.854;4.534;2023-06-26T12:33:47;2.92;;;0.90;;
40252;SDS011;25972;51.854;4.534;2023-06-26T12:36:14;1.50;;;0.88;;
40252;SDS011;25972;51.854;4.534;2023-06-26T12:38:41;5.53;;;1.08;;
40252;SDS011;25972;51.854;4.534;2023-06-26T12:41:12;2.83;;;0.90;;
40252;SDS011;25972;51.854;4.534;2023-06-26T12:43:38;5.32;;;1.13;;
40252;SDS011;25972;51.854;4.534;2023-06-26T12:46:06;3.40;;;0.90;;
40252;SDS011;25972;51.854;4.534;2023-06-26T12:48:38;1.92;;;0.95;;
40252;SDS011;25972;51.854;4.534;2023-06-26T12:51:17;2.60;;;1.08;;
40252;SDS011;25972;51.854;4.534;2023-06-26T12:53:44;4.70;;;1.30;;
40252;SDS011;25972;51.854;4.534;2023-06-26T12:56:11;3.22;;;1.20;;
40252;SDS011;25972;51.854;4.534;2023-06-26T12:58:37;3.53;;;1.33;;
40252;SDS011;25972;51.854;4.534;2023-06-26T13:01:05;1.17;;;0.68;;
40252;SDS011;25972;51.854;4.534;2023-06-26T13:03:39;1.73;;;0.73;;
40252;SDS011;25972;51.854;4.534;2023-06-26T13:06:06;2.13;;;0.90;;
40252;SDS011;25972;51.854;4.534;2023-06-26T13:08:32;2.15;;;0.80;;
40252;SDS011;25972;51.854;4.534;2023-06-26T13:11:00;1.60;;;0.73;;
40252;SDS011;25972;51.854;4.534;2023-06-26T13:13:26;2.17;;;0.90;;
40252;SDS011;25972;51.854;4.534;2023-06-26T13:15:52;2.10;;;1.10;;
40252;SDS011;25972;51.854;4.534;2023-06-26T13:18:18;1.48;;;0.77;;
40252;SDS011;25972;51.854;4.534;2023-06-26T13:20:45;2.15;;;1.00;;
40252;SDS011;25972;51.854;4.534;2023-06-26T13:23:11;4.32;;;1.23;;
40252;SDS011;25972;51.854;4.534;2023-06-26T13:25:38;1.65;;;0.50;;
40252;SDS011;25972;51.854;4.534;2023-06-26T13:28:05;3.47;;;1.00;;
40252;SDS011;25972;51.854;4.534;2023-06-26T13:30:37;1.67;;;0.90;;
40252;SDS011;25972;51.854;4.534;2023-06-26T13:33:03;2.83;;;1.10;;
40252;SDS011;25972;51.854;4.534;2023-06-26T13:35:30;3.05;;;1.02;;
40252;SDS011;25972;51.854;4.534;2023-06-26T13:37:56;3.40;;;1.20;;
40252;SDS011;25972;51.854;4.534;2023-06-26T13:40:22;2.92;;;1.00;;
40252;SDS011;25972;51.854;4.534;2023-06-26T13:42:48;3.42;;;0.90;;
40252;SDS011;25972;51.854;4.534;2023-06-26T13:45:15;4.13;;;0.93;;
40252;SDS011;25972;51.854;4.534;2023-06-26T13:47:41;4.95;;;1.10;;
40252;SDS011;25972;51.854;4.534;2023-06-26T13:50:08;2.42;;;0.80;;
40252;SDS011;25972;51.854;4.534;2023-06-26T13:52:35;2.20;;;1.15;;
40252;SDS011;25972;51.854;4.534;2023-06-26T13:55:05;3.30;;;1.20;;
40252;SDS011;25972;51.854;4.534;2023-06-26T13:57:32;3.42;;;0.93;;
40252;SDS011;25972;51.854;4.534;2023-06-26T14:00:00;4.68;;;1.13;;
40252;SDS011;25972;51.854;4.534;2023-06-26T14:02:39;2.95;;;0.98;;
40252;SDS011;25972;51.854;4.534;2023-06-26T14:05:05;2.60;;;1.15;;
40252;SDS011;25972;51.854;4.534;2023-06-26T14:07:32;2.55;;;0.90;;
40252;SDS011;25972;51.854;4.534;2023-06-26T14:09:58;17.75;;;1.55;;
40252;SDS011;25972;51.854;4.534;2023-06-26T14:12:24;2.80;;;1.20;;
40252;SDS011;25972;51.854;4.534;2023-06-26T14:14:51;9.48;;;1.45;;
40252;SDS011;25972;51.854;4.534;2023-06-26T14:17:17;5.25;;;1.10;;
40252;SDS011;25972;51.854;4.534;2023-06-26T14:19:45;3.35;;;0.80;;
40252;SDS011;25972;51.854;4.534;2023-06-26T14:22:11;6.05;;;0.98;;
40252;SDS011;25972;51.854;4.534;2023-06-26T14:24:37;12.27;;;1.85;;
40252;SDS011;25972;51.854;4.534;2023-06-26T14:27:04;7.35;;;1.30;;
40252;SDS011;25972;51.854;4.534;2023-06-26T14:29:30;4.40;;;1.30;;
40252;SDS011;25972;51.854;4.534;2023-06-26T14:31:56;3.83;;;1.30;;
40252;SDS011;25972;51.854;4.534;2023-06-26T14:34:23;2.85;;;1.00;;
40252;SDS011;25972;51.854;4.534;2023-06-26T14:36:50;2.63;;;1.00;;
40252;SDS011;25972;51.854;4.534;2023-06-26T14:39:16;6.57;;;1.40;;
40252;SDS011;25972;51.854;4.534;2023-06-26T14:41:42;4.63;;;1.20;;
40252;SDS011;25972;51.854;4.534;2023-06-26T14:44:08;3.17;;;1.13;;
40252;SDS011;25972;51.854;4.534;2023-06-26T14:46:36;4.18;;;0.85;;
40252;SDS011;25972;51.854;4.534;2023-06-26T14:49:02;3.03;;;1.13;;
40252;SDS011;25972;51.854;4.534;2023-06-26T14:51:28;2.28;;;1.00;;
40252;SDS011;25972;51.854;4.534;2023-06-26T14:53:56;3.10;;;1.08;;
40252;SDS011;25972;51.854;4.534;2023-06-26T14:56:22;6.30;;;1.30;;
40252;SDS011;25972;51.854;4.534;2023-06-26T14:58:49;4.07;;;1.30;;